Time;durP1;ratioP1;P1;durP2;ratioP2;P2;SDS_P1;SDS_P2;PMS_P1;PMS_P2;Temp;Humidity;BMP_temperature;BMP_pressure;BME280_temperature;BME280_humidity;BME280_pressure;Samples;Min_cycle;Max_cycle;Signal;HPM_P1;HPM_P2
2022/12/03 00:00:34;;;;;;;21.65;12.82;;;;;;;;;;6218435;28;20062;-77
2022/12/03 00:03:36;;;;;;;20.20;12.82;;;;;;;;;;6219976;28;20322;-77
2022/12/03 00:06:39;;;;;;;22.60;13.50;;;;;;;;;;6220006;28;20254;-75
2022/12/03 00:09:41;;;;;;;21.08;13.65;;;;;;;;;;6219825;28;20286;-72
2022/12/03 00:12:43;;;;;;;18.13;12.75;;;;;;;;;;6224039;28;20317;-74
2022/12/03 00:15:48;;;;;;;19.50;13.38;;;;;;;;;;6224647;28;20060;-75
2022/12/03 00:18:52;;;;;;;22.48;13.43;;;;;;;;;;6224653;28;20046;-75
2022/12/03 00:21:55;;;;;;;21.52;14.63;;;;;;;;;;6224717;28;20058;-75
2022/12/03 00:24:56;;;;;;;19.85;13.50;;;;;;;;;;6224009;28;20143;-75
2022/12/03 00:27:58;;;;;;;21.30;14.35;;;;;;;;;;6221631;28;20061;-75
2022/12/03 00:31:02;;;;;;;22.08;14.38;;;;;;;;;;6226014;28;20053;-76
2022/12/03 00:34:03;;;;;;;;;;;;;;;;;;6224768;28;20051;-76
2022/12/03 00:37:06;;;;;;;21.17;13.32;;;;;;;;;;6224685;28;19933;-75
2022/12/03 00:40:10;;;;;;;23.98;14.73;;;;;;;;;;6224888;28;20057;-72
2022/12/03 00:43:12;;;;;;;21.83;13.65;;;;;;;;;;6226253;28;20049;-71
2022/12/03 00:46:13;;;;;;;24.75;14.40;;;;;;;;;;6227084;28;20052;-72
2022/12/03 00:49:15;;;;;;;21.70;14.15;;;;;;;;;;6226001;28;20042;-72
2022/12/03 00:52:18;;;;;;;19.58;13.68;;;;;;;;;;6225667;28;20050;-71
2022/12/03 00:55:20;;;;;;;23.20;14.27;;;;;;;;;;6219460;28;20050;-71
2022/12/03 00:58:21;;;;;;;21.60;14.52;;;;;;;;;;6224606;28;20061;-72
2022/12/03 01:01:23;;;;;;;24.42;14.77;;;;;;;;;;6219927;28;20076;-75
2022/12/03 01:04:25;;;;;;;22.25;14.20;;;;;;;;;;6221201;28;20352;-73
2022/12/03 01:07:28;;;;;;;23.35;14.68;;;;;;;;;;6218301;28;20100;-73
2022/12/03 01:10:30;;;;;;;23.65;14.27;;;;;;;;;;6222279;28;20065;-76
2022/12/03 01:13:31;;;;;;;22.48;15.00;;;;;;;;;;6222201;28;20104;-75
2022/12/03 01:16:33;;;;;;;21.75;13.88;;;;;;;;;;6222924;28;20218;-73
2022/12/03 01:19:35;;;;;;;23.00;14.35;;;;;;;;;;6221794;28;20052;-73
2022/12/03 01:22:38;;;;;;;23.80;14.05;;;;;;;;;;6224800;28;20266;-73
2022/12/03 01:25:39;;;;;;;20.80;13.95;;;;;;;;;;6216805;28;20088;-73
2022/12/03 01:28:41;;;;;;;22.38;14.73;;;;;;;;;;6224173;28;20057;-73
2022/12/03 01:35:02;;;;;;;20.90;14.85;;;;;;;;;;6222263;28;20054;-74
2022/12/03 01:38:05;;;;;;;22.63;14.15;;;;;;;;;;6224487;28;20380;-73
2022/12/03 01:41:07;;;;;;;21.17;14.20;;;;;;;;;;6225797;28;20168;-73
2022/12/03 01:44:16;;;;;;;21.52;14.75;;;;;;;;;;6225008;28;20056;-74
2022/12/03 01:47:19;;;;;;;22.77;15.00;;;;;;;;;;6223683;28;20066;-77
2022/12/03 01:50:23;;;;;;;23.70;15.02;;;;;;;;;;6225315;28;20234;-76
2022/12/03 01:53:26;;;;;;;22.98;14.23;;;;;;;;;;6222215;28;20050;-75
2022/12/03 01:56:28;;;;;;;22.05;14.23;;;;;;;;;;6221290;28;20058;-74
2022/12/03 01:59:33;;;;;;;23.08;15.20;;;;;;;;;;6217893;28;20050;-76
2022/12/03 02:02:35;;;;;;;24.55;14.95;;;;;;;;;;6224741;28;20117;-74
2022/12/03 02:05:37;;;;;;;23.98;15.35;;;;;;;;;;6226101;28;20296;-73
2022/12/03 02:08:41;;;;;;;24.67;15.45;;;;;;;;;;6223384;28;20103;-74
2022/12/03 02:11:44;;;;;;;24.42;15.02;;;;;;;;;;6223082;28;20190;-74
2022/12/03 02:14:46;;;;;;;26.17;15.07;;;;;;;;;;6217904;28;20104;-73
2022/12/03 02:17:48;;;;;;;24.70;16.08;;;;;;;;;;6223626;28;20266;-72
2022/12/03 02:20:55;;;;;;;21.70;14.95;;;;;;;;;;6220062;28;20045;-73
2022/12/03 02:24:02;;;;;;;23.85;15.38;;;;;;;;;;6221780;28;20214;-74
2022/12/03 02:27:05;;;;;;;25.80;15.70;;;;;;;;;;6220811;28;20061;-72
2022/12/03 02:30:08;;;;;;;25.23;15.25;;;;;;;;;;6224496;28;20050;-72
2022/12/03 02:33:10;;;;;;;26.75;17.10;;;;;;;;;;6217250;28;20077;-70
2022/12/03 02:36:12;;;;;;;29.13;16.48;;;;;;;;;;6218009;28;20223;-74
2022/12/03 02:39:14;;;;;;;26.58;16.65;;;;;;;;;;6219060;28;20058;-72
2022/12/03 02:42:36;;;;;;;25.42;15.93;;;;;;;;;;6223962;28;20049;-76
2022/12/03 02:45:39;;;;;;;26.77;16.65;;;;;;;;;;6217005;28;20073;-71
2022/12/03 02:48:41;;;;;;;27.65;17.30;;;;;;;;;;6221700;28;20057;-72
2022/12/03 02:51:43;;;;;;;30.67;17.75;;;;;;;;;;6221902;28;20104;-71
2022/12/03 02:54:45;;;;;;;28.00;17.10;;;;;;;;;;6221888;28;20053;-71
2022/12/03 02:57:49;;;;;;;25.55;17.27;;;;;;;;;;6220713;28;20045;-72
2022/12/03 03:00:51;;;;;;;26.40;17.08;;;;;;;;;;6221401;28;20099;-71
2022/12/03 03:03:54;;;;;;;27.35;17.13;;;;;;;;;;6220487;28;20053;-70
2022/12/03 03:06:55;;;;;;;28.15;16.92;;;;;;;;;;6220291;28;20065;-71
2022/12/03 03:09:58;;;;;;;27.10;17.05;;;;;;;;;;6221499;28;20206;-70
2022/12/03 03:13:03;;;;;;;29.77;17.55;;;;;;;;;;6219630;28;20053;-70
2022/12/03 03:16:06;;;;;;;25.40;16.95;;;;;;;;;;6224315;28;20050;-72
2022/12/03 03:19:08;;;;;;;26.55;17.17;;;;;;;;;;6222421;28;20294;-72
2022/12/03 03:22:09;;;;;;;27.08;17.85;;;;;;;;;;6221538;28;20049;-72
2022/12/03 03:25:14;;;;;;;26.13;17.75;;;;;;;;;;6221588;28;20046;-69
2022/12/03 03:28:17;;;;;;;;;;;;;;;;;;6221435;28;20046;-70
2022/12/03 03:31:21;;;;;;;26.13;16.08;;;;;;;;;;6221935;28;19940;-72
2022/12/03 03:34:23;;;;;;;29.45;17.83;;;;;;;;;;6222615;28;20062;-70
2022/12/03 03:37:25;;;;;;;27.60;17.98;;;;;;;;;;6220556;28;20046;-72
2022/12/03 03:40:27;;;;;;;27.95;17.90;;;;;;;;;;6222156;28;20348;-73
2022/12/03 03:43:33;;;;;;;32.08;18.17;;;;;;;;;;6220041;28;20078;-71
2022/12/03 03:46:35;;;;;;;25.13;16.88;;;;;;;;;;6225097;28;20114;-72
2022/12/03 03:49:37;;;;;;;25.35;17.13;;;;;;;;;;6227888;28;20119;-72
2022/12/03 03:52:40;;;;;;;27.52;16.80;;;;;;;;;;6230650;28;20050;-72
2022/12/03 03:55:42;;;;;;;28.88;18.02;;;;;;;;;;6229764;28;20053;-70
2022/12/03 03:58:45;;;;;;;26.85;17.80;;;;;;;;;;6230878;28;20049;-70
2022/12/03 04:01:46;;;;;;;25.60;17.00;;;;;;;;;;6228520;28;20053;-70
2022/12/03 04:04:48;;;;;;;34.15;17.65;;;;;;;;;;6228461;28;20053;-70
2022/12/03 04:07:50;;;;;;;26.40;17.63;;;;;;;;;;6229556;28;20100;-70
2022/12/03 04:14:12;;;;;;;24.95;16.45;;;;;;;;;;6228644;28;20053;-70
2022/12/03 04:17:14;;;;;;;26.65;17.70;;;;;;;;;;6227909;28;20112;-70
2022/12/03 04:20:16;;;;;;;26.33;17.08;;;;;;;;;;6229528;28;20042;-70
2022/12/03 04:23:17;;;;;;;26.52;17.55;;;;;;;;;;6229888;28;20053;-70
2022/12/03 04:29:39;;;;;;;29.15;17.10;;;;;;;;;;6225228;28;20404;-70
2022/12/03 04:35:59;;;;;;;25.20;16.42;;;;;;;;;;6227103;28;20053;-70
2022/12/03 04:39:01;;;;;;;26.25;16.05;;;;;;;;;;6226197;28;20052;-71
2022/12/03 04:42:03;;;;;;;25.55;16.77;;;;;;;;;;6227313;28;20054;-70
2022/12/03 04:45:07;;;;;;;26.98;17.73;;;;;;;;;;6227428;28;20096;-70
2022/12/03 04:48:09;;;;;;;;;;;;;;;;;;6227772;28;20268;-70
2022/12/03 04:51:10;;;;;;;25.85;17.23;;;;;;;;;;6227477;28;20287;-70
2022/12/03 04:54:12;;;;;;;28.75;17.80;;;;;;;;;;6227843;28;20050;-70
2022/12/03 04:57:14;;;;;;;28.80;17.27;;;;;;;;;;6225738;28;20105;-72
2022/12/03 05:00:18;;;;;;;29.55;17.52;;;;;;;;;;6223396;28;20108;-72
2022/12/03 05:03:19;;;;;;;28.02;17.65;;;;;;;;;;6226437;28;20046;-72
2022/12/03 05:06:21;;;;;;;32.13;17.98;;;;;;;;;;6225525;28;20116;-72
2022/12/03 05:09:23;;;;;;;27.90;16.98;;;;;;;;;;6221993;28;20346;-70
2022/12/03 05:12:24;;;;;;;28.52;16.77;;;;;;;;;;6224127;28;20076;-73
2022/12/03 05:15:27;;;;;;;26.67;17.13;;;;;;;;;;6220701;28;20050;-70
2022/12/03 05:18:29;;;;;;;26.05;17.05;;;;;;;;;;6223566;28;20062;-70
2022/12/03 05:21:31;;;;;;;26.05;17.38;;;;;;;;;;6222908;28;20054;-72
2022/12/03 05:24:32;;;;;;;25.75;17.38;;;;;;;;;;6228357;28;20711;-69
2022/12/03 05:27:34;;;;;;;28.65;18.15;;;;;;;;;;6221567;28;20053;-70
2022/12/03 05:30:37;;;;;;;26.27;16.92;;;;;;;;;;6226531;28;20073;-70
2022/12/03 05:33:39;;;;;;;29.45;17.35;;;;;;;;;;6223118;28;20120;-72
2022/12/03 05:36:40;;;;;;;29.27;18.00;;;;;;;;;;6222301;28;20054;-72
2022/12/03 05:39:42;;;;;;;25.33;16.92;;;;;;;;;;6222819;28;20050;-71
2022/12/03 05:42:56;;;;;;;29.75;17.10;;;;;;;;;;6221963;28;20046;-71
2022/12/03 05:45:59;;;;;;;29.73;17.75;;;;;;;;;;6224872;28;20106;-70
2022/12/03 05:49:01;;;;;;;27.42;18.40;;;;;;;;;;6222883;28;20060;-70
2022/12/03 05:52:03;;;;;;;27.60;17.20;;;;;;;;;;6221910;28;20095;-71
2022/12/03 05:55:05;;;;;;;27.23;17.33;;;;;;;;;;6223977;28;20069;-71
2022/12/03 05:58:07;;;;;;;30.52;18.42;;;;;;;;;;6223824;28;20057;-71
2022/12/03 06:01:10;;;;;;;26.45;17.73;;;;;;;;;;6222312;28;20062;-71
2022/12/03 06:04:12;;;;;;;26.98;17.90;;;;;;;;;;6222068;28;20060;-71
2022/12/03 06:07:13;;;;;;;28.25;17.85;;;;;;;;;;6223306;28;20214;-71
2022/12/03 06:10:17;;;;;;;30.95;18.63;;;;;;;;;;6221809;28;20058;-71
2022/12/03 06:13:18;;;;;;;29.63;18.83;;;;;;;;;;6223107;28;20049;-71
2022/12/03 06:16:21;;;;;;;29.48;18.45;;;;;;;;;;6224075;28;20096;-70
2022/12/03 06:19:23;;;;;;;28.75;18.88;;;;;;;;;;6219042;28;20062;-76
2022/12/03 06:22:25;;;;;;;27.52;18.20;;;;;;;;;;6221039;28;20403;-77
2022/12/03 06:25:27;;;;;;;30.13;18.77;;;;;;;;;;6221866;28;20054;-75
2022/12/03 06:28:28;;;;;;;30.75;18.48;;;;;;;;;;6221427;28;20349;-74
2022/12/03 06:31:31;;;;;;;26.92;17.67;;;;;;;;;;6222367;28;20057;-75
2022/12/03 06:34:33;;;;;;;30.95;19.40;;;;;;;;;;6223594;28;20100;-70
2022/12/03 06:37:35;;;;;;;32.03;18.20;;;;;;;;;;6224041;28;20053;-71
2022/12/03 06:40:37;;;;;;;30.48;18.60;;;;;;;;;;6223008;28;20057;-72
2022/12/03 06:43:39;;;;;;;28.70;18.80;;;;;;;;;;6224329;28;20112;-70
2022/12/03 06:46:42;;;;;;;31.10;19.15;;;;;;;;;;6222887;28;20054;-71
2022/12/03 06:49:43;;;;;;;30.23;19.13;;;;;;;;;;6221962;28;20050;-71
2022/12/03 06:52:45;;;;;;;30.42;18.35;;;;;;;;;;6221495;28;20536;-72
2022/12/03 06:55:47;;;;;;;32.42;18.95;;;;;;;;;;6219109;28;20069;-71
2022/12/03 06:58:48;;;;;;;30.05;19.17;;;;;;;;;;6222463;28;20318;-71
2022/12/03 07:01:51;;;;;;;32.45;21.02;;;;;;;;;;6219859;28;20050;-71
2022/12/03 07:04:53;;;;;;;33.70;20.52;;;;;;;;;;6224462;28;20057;-72
2022/12/03 07:07:55;;;;;;;32.20;19.48;;;;;;;;;;6223048;28;20045;-71
2022/12/03 07:10:56;;;;;;;29.98;19.27;;;;;;;;;;6218650;28;20065;-71
2022/12/03 07:13:59;;;;;;;29.10;18.90;;;;;;;;;;6219268;28;20385;-69
2022/12/03 07:17:02;;;;;;;32.35;19.40;;;;;;;;;;6219743;28;20064;-69
2022/12/03 07:20:05;;;;;;;29.17;18.52;;;;;;;;;;6219648;28;20330;-69
2022/12/03 07:23:07;;;;;;;32.78;20.02;;;;;;;;;;6218568;28;20073;-70
2022/12/03 07:26:09;;;;;;;31.95;19.10;;;;;;;;;;6219515;28;20085;-70
2022/12/03 07:29:10;;;;;;;33.72;20.55;;;;;;;;;;6221862;28;20092;-70
2022/12/03 07:32:13;;;;;;;32.13;20.02;;;;;;;;;;6219731;28;20066;-70
2022/12/03 07:35:16;;;;;;;31.23;19.15;;;;;;;;;;6218922;28;20380;-70
2022/12/03 07:38:17;;;;;;;29.05;18.30;;;;;;;;;;6221308;28;20269;-70
2022/12/03 07:41:19;;;;;;;28.15;18.17;;;;;;;;;;6219871;28;20061;-70
2022/12/03 07:44:21;;;;;;;29.42;19.35;;;;;;;;;;6221210;28;20093;-70
2022/12/03 07:47:24;;;;;;;29.38;19.08;;;;;;;;;;6221685;28;20334;-70
2022/12/03 07:50:27;;;;;;;29.50;18.92;;;;;;;;;;6220525;28;20058;-70
2022/12/03 07:53:28;;;;;;;29.85;20.00;;;;;;;;;;6220640;28;20074;-70
2022/12/03 07:56:30;;;;;;;30.30;18.33;;;;;;;;;;6219720;28;20322;-70
2022/12/03 07:59:32;;;;;;;30.23;20.33;;;;;;;;;;6221331;28;20326;-69
2022/12/03 08:02:35;;;;;;;31.25;18.70;;;;;;;;;;6222674;28;20064;-69
2022/12/03 08:05:36;;;;;;;33.05;20.20;;;;;;;;;;6221403;28;20100;-69
2022/12/03 08:08:38;;;;;;;31.77;19.42;;;;;;;;;;6219444;28;20046;-69
2022/12/03 08:11:40;;;;;;;32.55;20.00;;;;;;;;;;6219278;28;20105;-69
2022/12/03 08:14:42;;;;;;;37.08;20.85;;;;;;;;;;6220200;28;20058;-69
2022/12/03 08:17:46;;;;;;;32.17;19.75;;;;;;;;;;6222596;28;20116;-68
2022/12/03 08:20:49;;;;;;;31.42;20.98;;;;;;;;;;6217381;28;20330;-70
2022/12/03 08:23:51;;;;;;;33.67;20.10;;;;;;;;;;6222404;28;20121;-70
2022/12/03 08:26:52;;;;;;;32.83;21.17;;;;;;;;;;6220325;28;20105;-70
2022/12/03 08:29:58;;;;;;;36.83;22.40;;;;;;;;;;6221071;28;20057;-71
2022/12/03 08:33:01;;;;;;;32.70;21.55;;;;;;;;;;6219222;28;20065;-73
2022/12/03 08:36:11;;;;;;;35.35;21.25;;;;;;;;;;6223527;28;20250;-72
2022/12/03 08:39:28;;;;;;;29.00;19.52;;;;;;;;;;6223198;28;20057;-76
2022/12/03 08:42:42;;;;;;;33.60;21.17;;;;;;;;;;6224832;28;20215;-75
2022/12/03 08:45:44;;;;;;;33.42;21.33;;;;;;;;;;6223605;28;20053;-76
2022/12/03 08:48:47;;;;;;;37.33;22.85;;;;;;;;;;6227716;28;20397;-76
2022/12/03 08:51:54;;;;;;;32.00;20.60;;;;;;;;;;6226269;28;20049;-76
2022/12/03 08:54:56;;;;;;;33.97;21.70;;;;;;;;;;6223920;28;20057;-75
2022/12/03 08:57:58;;;;;;;34.05;20.65;;;;;;;;;;6223707;28;20046;-76
2022/12/03 09:01:05;;;;;;;33.15;20.65;;;;;;;;;;6224228;28;20060;-76
2022/12/03 09:04:27;;;;;;;33.38;20.58;;;;;;;;;;6225173;28;20061;-76
2022/12/03 09:07:28;;;;;;;33.45;20.80;;;;;;;;;;6222698;28;20238;-76
2022/12/03 09:10:30;;;;;;;37.33;21.58;;;;;;;;;;6225636;28;20262;-76
2022/12/03 09:13:32;;;;;;;37.78;22.85;;;;;;;;;;6222288;28;20054;-75
2022/12/03 09:16:33;;;;;;;32.65;21.98;;;;;;;;;;6221583;28;20050;-76
2022/12/03 09:19:36;;;;;;;35.05;21.50;;;;;;;;;;6223124;28;20052;-76
2022/12/03 09:22:38;;;;;;;36.45;22.88;;;;;;;;;;6224666;28;20050;-75
2022/12/03 09:25:40;;;;;;;35.78;21.80;;;;;;;;;;6227832;28;20069;-78
2022/12/03 09:28:41;;;;;;;32.03;21.30;;;;;;;;;;6225425;28;20049;-77
2022/12/03 09:31:43;;;;;;;32.50;21.50;;;;;;;;;;6224751;28;20136;-75
2022/12/03 09:34:46;;;;;;;33.72;21.48;;;;;;;;;;6225487;28;20058;-76
2022/12/03 09:37:48;;;;;;;33.63;21.55;;;;;;;;;;6225172;28;20045;-76
2022/12/03 09:40:49;;;;;;;32.08;21.77;;;;;;;;;;6224917;28;20077;-79
2022/12/03 09:43:51;;;;;;;36.97;21.90;;;;;;;;;;6224198;28;20163;-76
2022/12/03 09:46:53;;;;;;;38.80;23.08;;;;;;;;;;6224445;28;20660;-78
2022/12/03 09:49:57;;;;;;;36.65;21.77;;;;;;;;;;6225650;28;20081;-79
2022/12/03 09:53:00;;;;;;;36.22;23.27;;;;;;;;;;6225876;28;20054;-78
2022/12/03 09:56:02;;;;;;;35.17;21.98;;;;;;;;;;6225329;28;20050;-77
2022/12/03 09:59:06;;;;;;;35.90;23.30;;;;;;;;;;6223439;28;20069;-77
2022/12/03 10:02:09;;;;;;;;;;;;;;;;;;6225011;28;20057;-77
2022/12/03 10:05:13;;;;;;;37.15;22.70;;;;;;;;;;6224077;28;19932;-77
2022/12/03 10:08:20;;;;;;;40.27;24.37;;;;;;;;;;6222836;28;20049;-78
2022/12/03 10:11:24;;;;;;;33.53;22.35;;;;;;;;;;6219322;28;20065;-77
2022/12/03 10:14:27;;;;;;;36.17;23.30;;;;;;;;;;6223602;28;20050;-78
2022/12/03 10:17:31;;;;;;;33.33;21.33;;;;;;;;;;6225414;28;20064;-78
2022/12/03 10:20:34;;;;;;;35.67;21.88;;;;;;;;;;6223823;28;20057;-78
2022/12/03 10:23:35;;;;;;;33.60;22.05;;;;;;;;;;6223962;28;20049;-78
2022/12/03 10:26:39;;;;;;;33.63;21.00;;;;;;;;;;6221737;28;20128;-78
2022/12/03 10:29:41;;;;;;;30.15;20.40;;;;;;;;;;6223163;28;20123;-78
2022/12/03 10:32:45;;;;;;;36.72;20.75;;;;;;;;;;6226842;28;20173;-78
2022/12/03 10:35:48;;;;;;;29.38;19.55;;;;;;;;;;6221972;28;20057;-78
2022/12/03 10:39:11;;;;;;;32.88;19.70;;;;;;;;;;6225729;28;20357;-78
2022/12/03 10:42:14;;;;;;;29.17;19.05;;;;;;;;;;6221675;28;20056;-77
2022/12/03 10:45:19;;;;;;;27.70;19.15;;;;;;;;;;6221748;28;20322;-78
2022/12/03 10:48:24;;;;;;;29.08;18.85;;;;;;;;;;6223101;28;20266;-77
2022/12/03 10:51:27;;;;;;;30.30;19.23;;;;;;;;;;6223277;28;20050;-78
2022/12/03 10:54:30;;;;;;;31.05;19.77;;;;;;;;;;6221280;28;20160;-78
2022/12/03 10:57:32;;;;;;;31.50;19.73;;;;;;;;;;6221731;28;20045;-78
2022/12/03 11:00:34;;;;;;;29.38;18.67;;;;;;;;;;6222436;28;20468;-77
2022/12/03 11:03:36;;;;;;;29.05;18.75;;;;;;;;;;6222406;28;20333;-78
2022/12/03 11:06:39;;;;;;;27.00;18.20;;;;;;;;;;6221324;28;20124;-78
2022/12/03 11:09:43;;;;;;;25.90;17.40;;;;;;;;;;6224999;28;20054;-78
2022/12/03 11:13:18;;;;;;;28.00;18.42;;;;;;;;;;6223681;28;20360;-78
2022/12/03 11:17:02;;;;;;;29.52;18.42;;;;;;;;;;6222878;28;20054;-78
2022/12/03 11:20:05;;;;;;;30.60;18.98;;;;;;;;;;6202861;28;20347;-78
2022/12/03 11:23:10;;;;;;;28.42;18.13;;;;;;;;;;6221878;28;20276;-78
2022/12/03 11:26:12;;;;;;;28.15;18.05;;;;;;;;;;6224420;28;20096;-78
2022/12/03 11:29:14;;;;;;;29.67;18.98;;;;;;;;;;6223305;28;20077;-78
2022/12/03 11:33:05;;;;;;;28.75;18.95;;;;;;;;;;6220670;28;20183;-78
2022/12/03 11:36:18;;;;;;;28.17;18.33;;;;;;;;;;6202080;28;20105;-78
2022/12/03 11:40:04;;;;;;;30.58;19.27;;;;;;;;;;6221514;28;20054;-78
2022/12/03 11:43:10;;;;;;;29.33;18.38;;;;;;;;;;6223473;28;20060;-78
2022/12/03 11:46:12;;;;;;;29.85;19.30;;;;;;;;;;6221979;28;20081;-78
2022/12/03 11:49:25;;;;;;;28.30;19.30;;;;;;;;;;6221952;28;20053;-77
2022/12/03 11:52:29;;;;;;;29.38;18.90;;;;;;;;;;6221502;28;20054;-78
2022/12/03 11:55:36;;;;;;;28.27;18.20;;;;;;;;;;6222026;28;20050;-77
2022/12/03 11:58:39;;;;;;;26.73;18.33;;;;;;;;;;6221988;28;20349;-76
2022/12/03 12:01:41;;;;;;;24.97;17.67;;;;;;;;;;6221499;28;20369;-77
2022/12/03 12:04:46;;;;;;;25.45;17.05;;;;;;;;;;6221949;28;20465;-78
2022/12/03 12:07:48;;;;;;;27.05;17.27;;;;;;;;;;6223746;28;20069;-78
2022/12/03 12:10:51;;;;;;;28.58;16.90;;;;;;;;;;6227164;28;20361;-77
2022/12/03 12:13:54;;;;;;;23.92;15.57;;;;;;;;;;6227696;28;20061;-78
2022/12/03 12:16:57;;;;;;;23.52;16.02;;;;;;;;;;6226371;28;20108;-76
2022/12/03 12:20:13;;;;;;;22.20;14.90;;;;;;;;;;6227480;28;20054;-78
2022/12/03 12:23:28;;;;;;;22.35;15.10;;;;;;;;;;6224722;28;20057;-78
2022/12/03 12:26:31;;;;;;;23.27;14.40;;;;;;;;;;6225459;28;20061;-76
2022/12/03 12:29:32;;;;;;;24.85;15.25;;;;;;;;;;6227251;28;20058;-78
2022/12/03 12:32:35;;;;;;;20.92;14.30;;;;;;;;;;6224751;28;20053;-78
2022/12/03 12:35:37;;;;;;;21.77;13.55;;;;;;;;;;6225692;28;20104;-78
2022/12/03 12:38:38;;;;;;;21.42;13.68;;;;;;;;;;6223582;28;20058;-77
2022/12/03 12:41:42;;;;;;;19.65;13.55;;;;;;;;;;6225738;28;20353;-76
2022/12/03 12:44:44;;;;;;;22.75;13.98;;;;;;;;;;6229059;28;20068;-78
2022/12/03 12:47:49;;;;;;;20.73;13.90;;;;;;;;;;6222565;28;20219;-78
2022/12/03 12:50:53;;;;;;;20.63;13.20;;;;;;;;;;6227136;28;20077;-78
2022/12/03 12:53:57;;;;;;;20.60;13.90;;;;;;;;;;6225821;28;20694;-78
2022/12/03 12:57:00;;;;;;;19.75;13.02;;;;;;;;;;6225425;28;20249;-78
2022/12/03 13:00:02;;;;;;;22.17;13.18;;;;;;;;;;6224355;28;20092;-78
2022/12/03 13:03:04;;;;;;;19.42;12.88;;;;;;;;;;6224836;28;20133;-78
2022/12/03 13:06:09;;;;;;;19.38;13.57;;;;;;;;;;6223654;28;20400;-78
2022/12/03 13:09:15;;;;;;;19.30;13.32;;;;;;;;;;6226990;28;20108;-78
2022/12/03 13:12:20;;;;;;;20.40;12.77;;;;;;;;;;6226450;28;20104;-78
2022/12/03 13:15:39;;;;;;;19.10;12.73;;;;;;;;;;6224355;28;20330;-78
2022/12/03 13:18:43;;;;;;;24.35;14.27;;;;;;;;;;6222755;28;20050;-78
2022/12/03 13:21:45;;;;;;;20.75;13.95;;;;;;;;;;6224022;28;20057;-78
2022/12/03 13:24:49;;;;;;;22.67;13.30;;;;;;;;;;6223597;28;20092;-78
2022/12/03 13:27:52;;;;;;;23.75;14.95;;;;;;;;;;6225701;28;20349;-78
2022/12/03 13:30:54;;;;;;;21.60;13.93;;;;;;;;;;6224801;28;20100;-78
2022/12/03 13:33:56;;;;;;;22.23;14.23;;;;;;;;;;6225496;28;20057;-76
2022/12/03 13:36:58;;;;;;;22.88;14.88;;;;;;;;;;6221910;28;20042;-78
2022/12/03 13:40:08;;;;;;;20.50;13.55;;;;;;;;;;6222934;28;20049;-78
2022/12/03 13:43:13;;;;;;;24.88;14.60;;;;;;;;;;6223486;28;20042;-78
2022/12/03 13:46:16;;;;;;;23.45;14.48;;;;;;;;;;6222443;28;20053;-77
2022/12/03 13:49:21;;;;;;;23.90;14.88;;;;;;;;;;6221669;28;20203;-78
2022/12/03 13:52:24;;;;;;;22.27;14.55;;;;;;;;;;6225485;28;20057;-77
2022/12/03 13:55:27;;;;;;;24.08;15.15;;;;;;;;;;6221598;28;20289;-78
2022/12/03 13:58:31;;;;;;;25.40;16.23;;;;;;;;;;6222472;28;20226;-78
2022/12/03 14:01:33;;;;;;;25.05;15.13;;;;;;;;;;6224796;28;20057;-78
2022/12/03 14:04:35;;;;;;;24.55;16.42;;;;;;;;;;6224524;28;20065;-78
2022/12/03 14:07:37;;;;;;;24.27;16.33;;;;;;;;;;6222993;28;20060;-78
2022/12/03 14:10:39;;;;;;;25.50;16.20;;;;;;;;;;6219093;28;20053;-78
2022/12/03 14:13:42;;;;;;;25.33;16.10;;;;;;;;;;6223187;28;20061;-78
2022/12/03 14:16:43;;;;;;;24.75;16.05;;;;;;;;;;6221452;28;20045;-76
2022/12/03 14:19:45;;;;;;;26.80;15.95;;;;;;;;;;6223144;28;20068;-76
2022/12/03 14:22:47;;;;;;;26.05;16.70;;;;;;;;;;6225269;28;20071;-77
2022/12/03 14:25:49;;;;;;;28.60;16.67;;;;;;;;;;6222882;28;20042;-78
2022/12/03 14:28:52;;;;;;;25.13;16.27;;;;;;;;;;6222920;28;20151;-79
2022/12/03 14:31:53;;;;;;;28.35;17.25;;;;;;;;;;6219937;28;20322;-78
2022/12/03 14:34:55;;;;;;;26.60;17.45;;;;;;;;;;6222992;28;20199;-78
2022/12/03 14:37:57;;;;;;;26.23;17.95;;;;;;;;;;6218947;28;20120;-78
2022/12/03 14:40:58;;;;;;;28.77;16.17;;;;;;;;;;6222832;28;20065;-77
2022/12/03 14:44:01;;;;;;;27.30;17.50;;;;;;;;;;6219809;28;20062;-76
2022/12/03 14:47:03;;;;;;;28.17;17.02;;;;;;;;;;6218065;28;20045;-75
2022/12/03 14:50:06;;;;;;;27.00;17.40;;;;;;;;;;6222673;28;20054;-76
2022/12/03 14:53:08;;;;;;;26.83;17.13;;;;;;;;;;6223354;28;20093;-77
2022/12/03 14:56:10;;;;;;;24.73;17.10;;;;;;;;;;6221168;28;20046;-76
2022/12/03 14:59:13;;;;;;;25.80;16.65;;;;;;;;;;6220250;28;20326;-76
2022/12/03 15:02:15;;;;;;;27.00;18.15;;;;;;;;;;6220790;28;20046;-76
2022/12/03 15:05:17;;;;;;;26.80;16.92;;;;;;;;;;6217269;28;20042;-76
2022/12/03 15:08:19;;;;;;;24.77;16.63;;;;;;;;;;6221342;28;20085;-76
2022/12/03 15:11:20;;;;;;;24.02;15.43;;;;;;;;;;6218207;28;20115;-76
2022/12/03 15:14:23;;;;;;;25.48;16.65;;;;;;;;;;6220333;28;20233;-76
2022/12/03 15:17:25;;;;;;;22.88;14.80;;;;;;;;;;6222530;28;20229;-76
2022/12/03 15:20:27;;;;;;;24.77;15.32;;;;;;;;;;6220364;28;20073;-77
2022/12/03 15:23:28;;;;;;;22.52;14.90;;;;;;;;;;6219515;28;20341;-76
2022/12/03 15:26:30;;;;;;;21.95;14.52;;;;;;;;;;6220187;28;20053;-76
2022/12/03 15:29:33;;;;;;;22.05;15.18;;;;;;;;;;6215551;28;20057;-76
2022/12/03 15:32:34;;;;;;;22.48;15.13;;;;;;;;;;6221176;28;20061;-76
2022/12/03 15:35:36;;;;;;;22.75;15.00;;;;;;;;;;6222561;28;20164;-78
2022/12/03 15:38:38;;;;;;;21.08;13.52;;;;;;;;;;6220700;28;20058;-74
2022/12/03 15:41:39;;;;;;;22.75;14.05;;;;;;;;;;6219687;28;20053;-76
2022/12/03 15:44:42;;;;;;;22.90;13.88;;;;;;;;;;6223380;28;20131;-78
2022/12/03 15:47:44;;;;;;;21.77;12.75;;;;;;;;;;6224890;28;20057;-80
2022/12/03 15:50:46;;;;;;;20.65;13.05;;;;;;;;;;6222098;28;20054;-77
2022/12/03 15:53:48;;;;;;;20.98;12.95;;;;;;;;;;6221153;28;20050;-78
2022/12/03 15:56:49;;;;;;;18.00;12.48;;;;;;;;;;6219333;28;20062;-78
2022/12/03 15:59:53;;;;;;;19.50;12.07;;;;;;;;;;6221342;28;20071;-73
2022/12/03 16:02:55;;;;;;;17.80;11.68;;;;;;;;;;6221151;28;20068;-73
2022/12/03 16:05:56;;;;;;;19.83;12.68;;;;;;;;;;6221093;28;20046;-76
2022/12/03 16:08:58;;;;;;;18.15;12.55;;;;;;;;;;6219866;28;20321;-74
2022/12/03 16:11:59;;;;;;;18.83;12.57;;;;;;;;;;6222911;28;20058;-73
2022/12/03 16:15:03;;;;;;;22.15;13.38;;;;;;;;;;6218865;28;20053;-76
2022/12/03 16:18:05;;;;;;;18.70;12.77;;;;;;;;;;6220065;28;20041;-76
2022/12/03 16:21:06;;;;;;;19.85;13.00;;;;;;;;;;6218325;28;20046;-76
2022/12/03 16:24:08;;;;;;;20.65;12.63;;;;;;;;;;6218309;28;20054;-76
2022/12/03 16:27:10;;;;;;;20.45;13.05;;;;;;;;;;6220833;28;20046;-76
2022/12/03 16:30:14;;;;;;;19.20;12.10;;;;;;;;;;6219449;28;20061;-76
2022/12/03 16:33:15;;;;;;;19.92;12.65;;;;;;;;;;6222179;28;20054;-75
2022/12/03 16:36:17;;;;;;;20.80;12.52;;;;;;;;;;6221640;28;20246;-75
2022/12/03 16:39:19;;;;;;;20.30;12.57;;;;;;;;;;6219757;28;20042;-75
2022/12/03 16:42:20;;;;;;;17.25;11.02;;;;;;;;;;6219390;28;20053;-74
2022/12/03 16:46:01;;;;;;;15.43;10.00;;;;;;;;;;6217809;28;20049;-75
2022/12/03 16:49:02;;;;;;;17.33;10.73;;;;;;;;;;6218892;28;20235;-75
2022/12/03 16:52:04;;;;;;;15.38;10.20;;;;;;;;;;6219208;28;20101;-76
2022/12/03 16:55:07;;;;;;;15.43;10.00;;;;;;;;;;6219378;28;20336;-75
2022/12/03 16:58:09;;;;;;;16.73;10.32;;;;;;;;;;6224690;28;20058;-76
2022/12/03 17:01:12;;;;;;;16.73;10.48;;;;;;;;;;6222959;28;20215;-77
2022/12/03 17:04:14;;;;;;;15.40;10.13;;;;;;;;;;6224423;28;20050;-75
2022/12/03 17:07:16;;;;;;;14.98;10.27;;;;;;;;;;6221638;28;20443;-75
2022/12/03 17:10:17;;;;;;;15.00;9.82;;;;;;;;;;6224239;28;20049;-75
2022/12/03 17:13:19;;;;;;;16.08;10.32;;;;;;;;;;6222990;28;20054;-77
2022/12/03 17:16:22;;;;;;;15.40;10.48;;;;;;;;;;6224102;28;20041;-76
2022/12/03 17:19:24;;;;;;;17.17;11.20;;;;;;;;;;6224114;28;20061;-74
2022/12/03 17:22:25;;;;;;;13.73;9.60;;;;;;;;;;6226495;28;20050;-76
2022/12/03 17:25:27;;;;;;;15.98;10.88;;;;;;;;;;6223624;28;20046;-74
2022/12/03 17:28:29;;;;;;;18.13;10.18;;;;;;;;;;6223116;28;20082;-74
2022/12/03 17:31:32;;;;;;;15.85;10.07;;;;;;;;;;6225891;28;20065;-75
2022/12/03 17:34:34;;;;;;;12.95;9.50;;;;;;;;;;6227032;28;20745;-76
2022/12/03 17:37:36;;;;;;;14.40;9.82;;;;;;;;;;6225226;28;20062;-75
2022/12/03 17:40:37;;;;;;;16.85;10.07;;;;;;;;;;6222137;28;20634;-75
2022/12/03 17:43:39;;;;;;;17.40;11.95;;;;;;;;;;6224360;28;20245;-75
2022/12/03 17:46:42;;;;;;;16.27;10.73;;;;;;;;;;6223756;28;20054;-75
2022/12/03 17:49:44;;;;;;;15.82;10.80;;;;;;;;;;6220273;28;20134;-75
2022/12/03 17:52:45;;;;;;;20.10;11.98;;;;;;;;;;6222500;28;20054;-74
2022/12/03 17:55:47;;;;;;;16.95;11.93;;;;;;;;;;6223417;28;20057;-77
2022/12/03 17:58:48;;;;;;;16.92;12.15;;;;;;;;;;6222687;28;20046;-78
2022/12/03 18:01:51;;;;;;;17.92;12.48;;;;;;;;;;6222110;28;20057;-77